sensor_id;sensor_type;location;lat;lon;timestamp;P1;durP1;ratioP1;P2;durP2;ratioP2
12232;SDS011;6179;51.748;8.728;2023-06-14T00:05:17;1.00;;;0.60;;
12232;SDS011;6179;51.748;8.728;2023-06-14T00:11:17;1.40;;;1.20;;
12232;SDS011;6179;51.748;8.728;2023-06-14T00:17:18;6.53;;;1.10;;
12232;SDS011;6179;51.748;8.728;2023-06-14T00:23:19;1.10;;;1.00;;
12232;SDS011;6179;51.748;8.728;2023-06-14T00:29:20;5.00;;;1.03;;
12232;SDS011;6179;51.748;8.728;2023-06-14T00:35:20;2.63;;;0.97;;
12232;SDS011;6179;51.748;8.728;2023-06-14T00:41:21;2.17;;;0.80;;
12232;SDS011;6179;51.748;8.728;2023-06-14T00:47:22;6.07;;;1.10;;
12232;SDS011;6179;51.748;8.728;2023-06-14T00:53:24;1.73;;;1.07;;
12232;SDS011;6179;51.748;8.728;2023-06-14T00:59:25;3.63;;;0.90;;
12232;SDS011;6179;51.748;8.728;2023-06-14T01:05:25;1.40;;;0.90;;
12232;SDS011;6179;51.748;8.728;2023-06-14T01:11:31;2.73;;;1.57;;
12232;SDS011;6179;51.748;8.728;2023-06-14T01:17:39;3.37;;;1.20;;
12232;SDS011;6179;51.748;8.728;2023-06-14T01:23:43;2.30;;;1.00;;
12232;SDS011;6179;51.748;8.728;2023-06-14T01:29:44;1.80;;;1.00;;
12232;SDS011;6179;51.748;8.728;2023-06-14T01:35:47;1.33;;;1.17;;
12232;SDS011;6179;51.748;8.728;2023-06-14T01:41:49;1.57;;;0.87;;
12232;SDS011;6179;51.748;8.728;2023-06-14T01:47:52;22.30;;;0.80;;
12232;SDS011;6179;51.748;8.728;2023-06-14T01:53:52;1.80;;;0.97;;
12232;SDS011;6179;51.748;8.728;2023-06-14T01:59:53;0.80;;;0.80;;
12232;SDS011;6179;51.748;8.728;2023-06-14T02:05:54;0.97;;;0.93;;
12232;SDS011;6179;51.748;8.728;2023-06-14T02:11:55;2.00;;;1.17;;
12232;SDS011;6179;51.748;8.728;2023-06-14T02:17:56;3.63;;;0.70;;
12232;SDS011;6179;51.748;8.728;2023-06-14T02:23:56;0.80;;;0.80;;
12232;SDS011;6179;51.748;8.728;2023-06-14T02:29:58;1.90;;;0.90;;
12232;SDS011;6179;51.748;8.728;2023-06-14T02:35:59;2.10;;;0.90;;
12232;SDS011;6179;51.748;8.728;2023-06-14T02:41:59;5.70;;;1.00;;
12232;SDS011;6179;51.748;8.728;2023-06-14T02:48:00;1.40;;;1.20;;
12232;SDS011;6179;51.748;8.728;2023-06-14T02:54:00;3.80;;;0.80;;
12232;SDS011;6179;51.748;8.728;2023-06-14T03:00:01;1.80;;;0.93;;
12232;SDS011;6179;51.748;8.728;2023-06-14T03:06:02;2.93;;;1.33;;
12232;SDS011;6179;51.748;8.728;2023-06-14T03:12:05;1.83;;;0.90;;
12232;SDS011;6179;51.748;8.728;2023-06-14T03:18:07;2.57;;;0.83;;
12232;SDS011;6179;51.748;8.728;2023-06-14T03:24:09;3.83;;;0.97;;
12232;SDS011;6179;51.748;8.728;2023-06-14T03:30:09;0.80;;;0.70;;
12232;SDS011;6179;51.748;8.728;2023-06-14T03:36:10;3.03;;;1.10;;
12232;SDS011;6179;51.748;8.728;2023-06-14T03:42:12;0.73;;;0.70;;
12232;SDS011;6179;51.748;8.728;2023-06-14T03:48:13;4.03;;;1.20;;
12232;SDS011;6179;51.748;8.728;2023-06-14T03:54:13;1.73;;;1.27;;
12232;SDS011;6179;51.748;8.728;2023-06-14T04:00:14;2.53;;;1.20;;
12232;SDS011;6179;51.748;8.728;2023-06-14T04:06:15;2.20;;;1.63;;
12232;SDS011;6179;51.748;8.728;2023-06-14T04:12:19;1.93;;;0.93;;
12232;SDS011;6179;51.748;8.728;2023-06-14T04:18:20;6.67;;;1.00;;
12232;SDS011;6179;51.748;8.728;2023-06-14T04:24:21;3.63;;;1.20;;
12232;SDS011;6179;51.748;8.728;2023-06-14T04:30:23;3.73;;;1.50;;
12232;SDS011;6179;51.748;8.728;2023-06-14T04:36:26;2.50;;;1.40;;
12232;SDS011;6179;51.748;8.728;2023-06-14T04:42:28;1.10;;;1.00;;
12232;SDS011;6179;51.748;8.728;2023-06-14T04:48:30;3.53;;;1.57;;
12232;SDS011;6179;51.748;8.728;2023-06-14T04:54:32;2.37;;;1.30;;
12232;SDS011;6179;51.748;8.728;2023-06-14T05:00:33;7.13;;;1.40;;
12232;SDS011;6179;51.748;8.728;2023-06-14T05:06:34;2.07;;;1.10;;
12232;SDS011;6179;51.748;8.728;2023-06-14T05:12:36;2.10;;;1.07;;
12232;SDS011;6179;51.748;8.728;2023-06-14T05:18:37;1.90;;;1.20;;
12232;SDS011;6179;51.748;8.728;2023-06-14T05:24:38;1.30;;;1.10;;
12232;SDS011;6179;51.748;8.728;2023-06-14T05:30:39;2.63;;;0.83;;
12232;SDS011;6179;51.748;8.728;2023-06-14T05:36:40;2.50;;;1.20;;
12232;SDS011;6179;51.748;8.728;2023-06-14T05:42:40;2.30;;;0.70;;
12232;SDS011;6179;51.748;8.728;2023-06-14T05:48:41;3.90;;;0.67;;
12232;SDS011;6179;51.748;8.728;2023-06-14T05:54:41;0.83;;;0.60;;
12232;SDS011;6179;51.748;8.728;2023-06-14T06:00:42;0.60;;;0.40;;
12232;SDS011;6179;51.748;8.728;2023-06-14T06:06:42;0.63;;;0.63;;
12232;SDS011;6179;51.748;8.728;2023-06-14T06:12:43;0.70;;;0.60;;
12232;SDS011;6179;51.748;8.728;2023-06-14T06:18:44;2.20;;;0.60;;
12232;SDS011;6179;51.748;8.728;2023-06-14T06:24:52;1.10;;;0.67;;
12232;SDS011;6179;51.748;8.728;2023-06-14T06:30:52;1.07;;;0.60;;
12232;SDS011;6179;51.748;8.728;2023-06-14T06:36:53;0.50;;;0.50;;
12232;SDS011;6179;51.748;8.728;2023-06-14T06:42:55;0.90;;;0.70;;
12232;SDS011;6179;51.748;8.728;2023-06-14T06:48:55;0.60;;;0.60;;
12232;SDS011;6179;51.748;8.728;2023-06-14T06:54:56;0.80;;;0.80;;
12232;SDS011;6179;51.748;8.728;2023-06-14T07:00:57;0.60;;;0.60;;
12232;SDS011;6179;51.748;8.728;2023-06-14T07:06:58;0.77;;;0.70;;
12232;SDS011;6179;51.748;8.728;2023-06-14T07:12:58;0.93;;;0.80;;
12232;SDS011;6179;51.748;8.728;2023-06-14T07:18:59;4.07;;;0.70;;
12232;SDS011;6179;51.748;8.728;2023-06-14T07:25:02;0.70;;;0.53;;
12232;SDS011;6179;51.748;8.728;2023-06-14T07:31:03;1.23;;;0.50;;
12232;SDS011;6179;51.748;8.728;2023-06-14T07:37:03;1.67;;;0.50;;
12232;SDS011;6179;51.748;8.728;2023-06-14T07:43:04;2.27;;;0.70;;
12232;SDS011;6179;51.748;8.728;2023-06-14T07:49:05;5.00;;;0.60;;
12232;SDS011;6179;51.748;8.728;2023-06-14T07:55:06;0.77;;;0.57;;
12232;SDS011;6179;51.748;8.728;2023-06-14T08:01:08;1.53;;;0.70;;
12232;SDS011;6179;51.748;8.728;2023-06-14T08:07:10;0.60;;;0.60;;
12232;SDS011;6179;51.748;8.728;2023-06-14T08:13:10;0.73;;;0.70;;
12232;SDS011;6179;51.748;8.728;2023-06-14T08:19:11;0.73;;;0.60;;
12232;SDS011;6179;51.748;8.728;2023-06-14T08:25:12;0.80;;;0.80;;
12232;SDS011;6179;51.748;8.728;2023-06-14T08:31:13;1.07;;;0.60;;
12232;SDS011;6179;51.748;8.728;2023-06-14T08:37:14;1.20;;;0.77;;
12232;SDS011;6179;51.748;8.728;2023-06-14T08:43:15;1.23;;;0.70;;
12232;SDS011;6179;51.748;8.728;2023-06-14T08:49:16;1.80;;;0.80;;
12232;SDS011;6179;51.748;8.728;2023-06-14T08:55:17;1.00;;;0.80;;
12232;SDS011;6179;51.748;8.728;2023-06-14T09:01:20;1.60;;;0.80;;
12232;SDS011;6179;51.748;8.728;2023-06-14T09:07:21;1.50;;;0.80;;
12232;SDS011;6179;51.748;8.728;2023-06-14T09:13:22;3.53;;;0.93;;
12232;SDS011;6179;51.748;8.728;2023-06-14T09:19:23;0.93;;;0.90;;
12232;SDS011;6179;51.748;8.728;2023-06-14T09:25:25;2.87;;;0.90;;
12232;SDS011;6179;51.748;8.728;2023-06-14T09:31:27;1.00;;;0.90;;
12232;SDS011;6179;51.748;8.728;2023-06-14T09:37:32;0.90;;;0.80;;
12232;SDS011;6179;51.748;8.728;2023-06-14T09:43:34;2.33;;;1.27;;
12232;SDS011;6179;51.748;8.728;2023-06-14T09:49:35;3.20;;;1.37;;
12232;SDS011;6179;51.748;8.728;2023-06-14T09:55:37;4.57;;;1.17;;
12232;SDS011;6179;51.748;8.728;2023-06-14T10:01:43;1.10;;;0.90;;
12232;SDS011;6179;51.748;8.728;2023-06-14T10:07:53;6.67;;;1.13;;
12232;SDS011;6179;51.748;8.728;2023-06-14T10:14:07;1.00;;;1.00;;
12232;SDS011;6179;51.748;8.728;2023-06-14T10:20:21;0.90;;;0.83;;
12232;SDS011;6179;51.748;8.728;2023-06-14T10:26:28;6.43;;;1.00;;
12232;SDS011;6179;51.748;8.728;2023-06-14T10:32:29;4.83;;;1.20;;
12232;SDS011;6179;51.748;8.728;2023-06-14T10:38:32;1.47;;;0.90;;
12232;SDS011;6179;51.748;8.728;2023-06-14T10:51:01;0.90;;;0.70;;
12232;SDS011;6179;51.748;8.728;2023-06-14T10:57:02;0.90;;;0.70;;
12232;SDS011;6179;51.748;8.728;2023-06-14T11:09:57;3.47;;;0.90;;
12232;SDS011;6179;51.748;8.728;2023-06-14T11:16:14;3.70;;;0.80;;
12232;SDS011;6179;51.748;8.728;2023-06-14T11:22:18;2.07;;;1.20;;
12232;SDS011;6179;51.748;8.728;2023-06-14T11:28:19;5.60;;;1.37;;
12232;SDS011;6179;51.748;8.728;2023-06-14T11:34:21;1.53;;;0.90;;
12232;SDS011;6179;51.748;8.728;2023-06-14T11:40:25;0.93;;;0.80;;
12232;SDS011;6179;51.748;8.728;2023-06-14T11:46:27;1.23;;;1.03;;
12232;SDS011;6179;51.748;8.728;2023-06-14T11:52:28;0.93;;;0.77;;
12232;SDS011;6179;51.748;8.728;2023-06-14T11:58:29;1.17;;;1.00;;
12232;SDS011;6179;51.748;8.728;2023-06-14T12:04:30;3.50;;;1.23;;
12232;SDS011;6179;51.748;8.728;2023-06-14T12:10:31;2.37;;;1.20;;
12232;SDS011;6179;51.748;8.728;2023-06-14T12:16:43;4.30;;;1.00;;
12232;SDS011;6179;51.748;8.728;2023-06-14T12:22:54;1.30;;;0.90;;
12232;SDS011;6179;51.748;8.728;2023-06-14T12:28:58;1.87;;;0.87;;
12232;SDS011;6179;51.748;8.728;2023-06-14T12:34:59;4.10;;;0.80;;
12232;SDS011;6179;51.748;8.728;2023-06-14T12:41:00;1.30;;;0.80;;
12232;SDS011;6179;51.748;8.728;2023-06-14T12:47:01;2.67;;;0.70;;
12232;SDS011;6179;51.748;8.728;2023-06-14T12:53:02;1.03;;;0.70;;
12232;SDS011;6179;51.748;8.728;2023-06-14T12:59:03;2.10;;;0.83;;
12232;SDS011;6179;51.748;8.728;2023-06-14T13:05:04;2.50;;;0.70;;
12232;SDS011;6179;51.748;8.728;2023-06-14T13:11:05;0.80;;;0.80;;
12232;SDS011;6179;51.748;8.728;2023-06-14T13:17:07;0.60;;;0.57;;
12232;SDS011;6179;51.748;8.728;2023-06-14T13:23:10;0.73;;;0.70;;
12232;SDS011;6179;51.748;8.728;2023-06-14T13:29:10;0.80;;;0.80;;
12232;SDS011;6179;51.748;8.728;2023-06-14T13:35:11;1.33;;;0.80;;
12232;SDS011;6179;51.748;8.728;2023-06-14T13:41:12;0.90;;;0.57;;
12232;SDS011;6179;51.748;8.728;2023-06-14T13:47:13;1.17;;;1.07;;
12232;SDS011;6179;51.748;8.728;2023-06-14T13:53:14;1.17;;;1.00;;
12232;SDS011;6179;51.748;8.728;2023-06-14T13:59:15;0.70;;;0.70;;
12232;SDS011;6179;51.748;8.728;2023-06-14T14:05:16;0.60;;;0.60;;
12232;SDS011;6179;51.748;8.728;2023-06-14T14:11:17;0.60;;;0.60;;
12232;SDS011;6179;51.748;8.728;2023-06-14T14:17:18;1.27;;;0.73;;
12232;SDS011;6179;51.748;8.728;2023-06-14T14:23:20;2.27;;;1.30;;
12232;SDS011;6179;51.748;8.728;2023-06-14T14:29:21;0.90;;;0.63;;
12232;SDS011;6179;51.748;8.728;2023-06-14T14:35:23;2.00;;;0.57;;
12232;SDS011;6179;51.748;8.728;2023-06-14T14:41:27;6.10;;;0.80;;
12232;SDS011;6179;51.748;8.728;2023-06-14T14:47:28;2.93;;;0.67;;
12232;SDS011;6179;51.748;8.728;2023-06-14T14:53:28;1.43;;;0.60;;
12232;SDS011;6179;51.748;8.728;2023-06-14T14:59:30;0.67;;;0.67;;
12232;SDS011;6179;51.748;8.728;2023-06-14T15:05:30;0.70;;;0.67;;
12232;SDS011;6179;51.748;8.728;2023-06-14T15:11:31;3.43;;;0.70;;
12232;SDS011;6179;51.748;8.728;2023-06-14T15:17:32;12.60;;;1.73;;
12232;SDS011;6179;51.748;8.728;2023-06-14T15:23:33;0.60;;;0.60;;
12232;SDS011;6179;51.748;8.728;2023-06-14T15:29:34;1.57;;;0.60;;
12232;SDS011;6179;51.748;8.728;2023-06-14T15:35:35;1.00;;;0.63;;
12232;SDS011;6179;51.748;8.728;2023-06-14T15:41:35;1.43;;;0.90;;
12232;SDS011;6179;51.748;8.728;2023-06-14T15:47:36;1.30;;;1.20;;
12232;SDS011;6179;51.748;8.728;2023-06-14T15:53:37;3.03;;;1.20;;
12232;SDS011;6179;51.748;8.728;2023-06-14T15:59:38;4.97;;;1.00;;
12232;SDS011;6179;51.748;8.728;2023-06-14T16:05:39;6.23;;;2.63;;
12232;SDS011;6179;51.748;8.728;2023-06-14T16:11:40;1.67;;;0.90;;
12232;SDS011;6179;51.748;8.728;2023-06-14T16:17:41;7.67;;;0.80;;
12232;SDS011;6179;51.748;8.728;2023-06-14T16:23:42;3.33;;;1.60;;
12232;SDS011;6179;51.748;8.728;2023-06-14T16:29:43;1.63;;;0.80;;
12232;SDS011;6179;51.748;8.728;2023-06-14T16:35:44;1.50;;;1.40;;
12232;SDS011;6179;51.748;8.728;2023-06-14T16:41:45;1.90;;;1.00;;
12232;SDS011;6179;51.748;8.728;2023-06-14T16:47:45;1.60;;;1.20;;
12232;SDS011;6179;51.748;8.728;2023-06-14T16:53:46;1.30;;;1.13;;
12232;SDS011;6179;51.748;8.728;2023-06-14T16:59:47;2.60;;;2.10;;
12232;SDS011;6179;51.748;8.728;2023-06-14T17:05:57;2.13;;;1.20;;
12232;SDS011;6179;51.748;8.728;2023-06-14T17:11:58;2.80;;;1.37;;
12232;SDS011;6179;51.748;8.728;2023-06-14T17:17:59;1.83;;;1.30;;
12232;SDS011;6179;51.748;8.728;2023-06-14T17:23:59;1.57;;;0.90;;
12232;SDS011;6179;51.748;8.728;2023-06-14T17:30:01;1.93;;;0.90;;
12232;SDS011;6179;51.748;8.728;2023-06-14T17:36:02;1.60;;;1.13;;
12232;SDS011;6179;51.748;8.728;2023-06-14T17:42:04;2.27;;;1.53;;
12232;SDS011;6179;51.748;8.728;2023-06-14T17:48:06;1.50;;;1.40;;
12232;SDS011;6179;51.748;8.728;2023-06-14T17:54:06;2.20;;;1.07;;
12232;SDS011;6179;51.748;8.728;2023-06-14T18:00:08;2.00;;;1.43;;
12232;SDS011;6179;51.748;8.728;2023-06-14T18:06:09;4.10;;;1.37;;
12232;SDS011;6179;51.748;8.728;2023-06-14T18:12:10;2.33;;;1.23;;
12232;SDS011;6179;51.748;8.728;2023-06-14T18:18:11;1.70;;;1.30;;
12232;SDS011;6179;51.748;8.728;2023-06-14T18:24:12;2.30;;;1.13;;
12232;SDS011;6179;51.748;8.728;2023-06-14T18:30:14;2.13;;;1.00;;
12232;SDS011;6179;51.748;8.728;2023-06-14T18:36:17;6.83;;;1.80;;
12232;SDS011;6179;51.748;8.728;2023-06-14T18:42:19;1.73;;;1.53;;
12232;SDS011;6179;51.748;8.728;2023-06-14T18:48:23;3.57;;;1.20;;
12232;SDS011;6179;51.748;8.728;2023-06-14T18:54:24;1.53;;;0.90;;
12232;SDS011;6179;51.748;8.728;2023-06-14T19:00:26;1.33;;;1.23;;
12232;SDS011;6179;51.748;8.728;2023-06-14T19:06:29;2.87;;;1.17;;
12232;SDS011;6179;51.748;8.728;2023-06-14T19:12:30;3.10;;;1.10;;
12232;SDS011;6179;51.748;8.728;2023-06-14T19:18:31;1.20;;;1.10;;
12232;SDS011;6179;51.748;8.728;2023-06-14T19:24:32;2.03;;;1.33;;
12232;SDS011;6179;51.748;8.728;2023-06-14T19:30:34;1.93;;;1.50;;
12232;SDS011;6179;51.748;8.728;2023-06-14T19:36:36;1.53;;;0.93;;
12232;SDS011;6179;51.748;8.728;2023-06-14T19:42:37;7.43;;;1.70;;
12232;SDS011;6179;51.748;8.728;2023-06-14T19:48:39;2.83;;;1.10;;
12232;SDS011;6179;51.748;8.728;2023-06-14T19:54:40;1.83;;;1.10;;
12232;SDS011;6179;51.748;8.728;2023-06-14T20:00:41;2.90;;;1.73;;
12232;SDS011;6179;51.748;8.728;2023-06-14T20:06:42;1.83;;;1.53;;
12232;SDS011;6179;51.748;8.728;2023-06-14T20:12:42;6.77;;;1.73;;
12232;SDS011;6179;51.748;8.728;2023-06-14T20:18:43;2.97;;;1.57;;
12232;SDS011;6179;51.748;8.728;2023-06-14T20:24:44;6.27;;;1.47;;
12232;SDS011;6179;51.748;8.728;2023-06-14T20:30:45;1.73;;;1.63;;
12232;SDS011;6179;51.748;8.728;2023-06-14T20:36:46;3.57;;;1.23;;
12232;SDS011;6179;51.748;8.728;2023-06-14T20:42:47;1.63;;;1.43;;
12232;SDS011;6179;51.748;8.728;2023-06-14T20:48:48;3.83;;;1.60;;
12232;SDS011;6179;51.748;8.728;2023-06-14T20:54:49;1.70;;;1.33;;
12232;SDS011;6179;51.748;8.728;2023-06-14T21:00:49;5.43;;;1.63;;
12232;SDS011;6179;51.748;8.728;2023-06-14T21:06:51;2.57;;;1.00;;
12232;SDS011;6179;51.748;8.728;2023-06-14T21:12:52;2.63;;;2.00;;
12232;SDS011;6179;51.748;8.728;2023-06-14T21:18:55;2.33;;;1.80;;
12232;SDS011;6179;51.748;8.728;2023-06-14T21:24:56;7.83;;;1.40;;
12232;SDS011;6179;51.748;8.728;2023-06-14T21:30:56;8.20;;;2.00;;
12232;SDS011;6179;51.748;8.728;2023-06-14T21:36:57;1.33;;;1.23;;
12232;SDS011;6179;51.748;8.728;2023-06-14T21:42:58;4.83;;;1.50;;
12232;SDS011;6179;51.748;8.728;2023-06-14T21:48:59;3.23;;;1.13;;
12232;SDS011;6179;51.748;8.728;2023-06-14T21:55:00;3.50;;;1.90;;
12232;SDS011;6179;51.748;8.728;2023-06-14T22:01:00;5.80;;;1.73;;
12232;SDS011;6179;51.748;8.728;2023-06-14T22:07:01;4.47;;;2.73;;
12232;SDS011;6179;51.748;8.728;2023-06-14T22:13:02;3.43;;;1.67;;
12232;SDS011;6179;51.748;8.728;2023-06-14T22:19:04;4.03;;;3.03;;
12232;SDS011;6179;51.748;8.728;2023-06-14T22:25:06;2.33;;;1.70;;
12232;SDS011;6179;51.748;8.728;2023-06-14T22:31:08;2.50;;;2.27;;
12232;SDS011;6179;51.748;8.728;2023-06-14T22:37:10;3.37;;;2.67;;
12232;SDS011;6179;51.748;8.728;2023-06-14T22:43:11;2.00;;;1.70;;
12232;SDS011;6179;51.748;8.728;2023-06-14T22:49:12;2.73;;;2.50;;
12232;SDS011;6179;51.748;8.728;2023-06-14T22:55:14;4.07;;;2.70;;
12232;SDS011;6179;51.748;8.728;2023-06-14T23:01:15;2.93;;;1.77;;
12232;SDS011;6179;51.748;8.728;2023-06-14T23:07:17;2.57;;;2.17;;
12232;SDS011;6179;51.748;8.728;2023-06-14T23:13:21;5.53;;;1.90;;
12232;SDS011;6179;51.748;8.728;2023-06-14T23:19:22;5.40;;;2.50;;
12232;SDS011;6179;51.748;8.728;2023-06-14T23:25:25;2.83;;;2.37;;
12232;SDS011;6179;51.748;8.728;2023-06-14T23:31:26;5.53;;;3.47;;
12232;SDS011;6179;51.748;8.728;2023-06-14T23:37:27;4.80;;;2.20;;
12232;SDS011;6179;51.748;8.728;2023-06-14T23:43:30;2.03;;;1.40;;
12232;SDS011;6179;51.748;8.728;2023-06-14T23:49:37;4.40;;;3.10;;
12232;SDS011;6179;51.748;8.728;2023-06-14T23:55:38;2.80;;;2.30;;
